This is the latest recevied weather packets stored in our database for station/object GW1480. If no packets are shown the sender has not sent any weather packets the latest 10 day(s).
| Time | Temp. | Humidity | Pressure | Rain* | Wind** | Luminosity | Snow |
|---|---|---|---|---|---|---|---|
| 1777653199 | 17.22° C | 47% | 1014.9 hPa | 0 mm | - | - | - |
| 1777652831 | 17.22° C | 42% | 1015.2 hPa | 0 mm | - | - | - |
| 1777651428 | 16.67° C | 43% | 1015.2 hPa | 0 mm | - | - | - |
| 1777649615 | 16.11° C | 53% | 1015.5 hPa | 0 mm | - | - | - |
| 1777648171 | 15.56° C | 48% | 1015.9 hPa | 0 mm | - | - | - |
| 1777646744 | 14.44° C | 53% | 1016.2 hPa | 0 mm | - | - | - |
| 1777644932 | 12.22° C | 66% | 1016.2 hPa | 0 mm | - | - | - |
| 1777640613 | 7.22° C | 93% | 1016.5 hPa | 0 mm | - | - | - |
| 1777636650 | 2.22° C | 98% | 1017.2 hPa | 0 mm | - | - | - |
| 1777634140 | 1.11° C | 98% | 1017.2 hPa | 0 mm | - | - | - |
| 1777631268 | 1.11° C | 98% | 1017.2 hPa | 0 mm | - | - | - |
| 1777629089 | 1.11° C | 98% | 1017.2 hPa | 0 mm | - | - | - |
| 1777628750 | 1.11° C | 98% | 1017.2 hPa | 0 mm | - | - | - |
| 1777628362 | 1.11° C | 98% | 1017.2 hPa | 0 mm | - | - | - |
| 1777620444 | 1.67° C | 98% | 1017.2 hPa | 0 mm | - | - | - |
| 1777613961 | 2.22° C | 98% | 1018.2 hPa | 0 mm | - | - | - |
| 1777607483 | 3.33° C | 98% | 1018.9 hPa | 0 mm | - | - | - |
| 1777605694 | 3.89° C | 98% | 1018.6 hPa | 0 mm | - | - | - |
| 1777605327 | 3.89° C | 97% | 1018.6 hPa | 0 mm | - | - | - |
| 1777602431 | 4.44° C | 97% | 1018.9 hPa | 0 mm | - | - | - |
| 1777601753 | 5° C | 97% | 1018.9 hPa | 0 mm | - | - | - |
| 1777601372 | 5° C | 96% | 1018.9 hPa | 0 mm | - | - | - |
| 1777600669 | 5.56° C | 96% | 1018.6 hPa | 0 mm | - | - | - |
| 1777599562 | 5.56° C | 96% | 1018.2 hPa | 0 mm | - | - | - |
| 1777597785 | 6.67° C | 95% | 1018.2 hPa | 0 mm | - | - | - |
* Rain since midnight (hover to see other rain measurements)
** Current wind speed in m/s (hover to see current wind gust speed)